Time;durP1;ratioP1;P1;durP2;ratioP2;P2;SDS_P1;SDS_P2;PMS_P1;PMS_P2;Temp;Humidity;BMP_temperature;BMP_pressure;BME280_temperature;BME280_humidity;BME280_pressure;Samples;Min_cycle;Max_cycle;Signal;HPM_P1;HPM_P2
2023/07/30 00:01:17;;;;;;;8.27;3.38;;;;;;;14.82;95.61;100870.88;5029416;28;20040;-80
2023/07/30 00:03:42;;;;;;;10.15;3.50;;;;;;;14.79;95.70;100858.72;5028989;28;20049;-80
2023/07/30 00:06:10;;;;;;;7.13;3.05;;;;;;;14.78;95.32;100862.34;5029432;28;20029;-82
2023/07/30 00:08:35;;;;;;;9.07;3.13;;;;;;;14.80;95.68;100863.06;5028322;28;20026;-81
2023/07/30 00:11:01;;;;;;;9.38;3.60;;;;;;;14.77;95.75;100870.44;5030089;28;20059;-81
2023/07/30 00:13:26;;;;;;;8.75;3.22;;;;;;;14.77;95.73;100865.97;5030085;28;20359;-81
2023/07/30 00:15:52;;;;;;;13.02;3.60;;;;;;;14.74;96.03;100863.63;5026929;28;20396;-81
2023/07/30 00:18:17;;;;;;;8.15;3.40;;;;;;;14.70;96.37;100856.94;5026367;28;20864;-82
2023/07/30 00:20:43;;;;;;;14.40;3.80;;;;;;;14.66;96.61;100851.06;5027189;28;20037;-81
2023/07/30 00:23:09;;;;;;;12.95;3.60;;;;;;;14.65;96.71;100862.66;5028762;28;20105;-81
2023/07/30 00:25:34;;;;;;;9.80;3.72;;;;;;;14.62;96.43;100856.78;5027910;28;20022;-82
2023/07/30 00:27:59;;;;;;;7.93;3.22;;;;;;;14.59;97.11;100860.56;5023902;28;20045;-82
2023/07/30 00:30:25;;;;;;;14.25;4.20;;;;;;;14.55;97.38;100861.81;5017907;28;20049;-82
2023/07/30 00:32:50;;;;;;;10.70;3.83;;;;;;;14.58;97.31;100864.19;5030151;28;20029;-81
2023/07/30 00:35:16;;;;;;;8.13;3.35;;;;;;;14.56;97.53;100862.66;5022038;28;20134;-82
2023/07/30 00:37:44;;;;;;;12.68;3.92;;;;;;;14.54;97.77;100876.03;5009674;28;20486;-82
2023/07/30 00:40:10;;;;;;;10.35;3.50;;;;;;;14.52;98.29;100863.91;5012781;28;20025;-81
2023/07/30 00:42:35;;;;;;;11.57;3.80;;;;;;;14.51;98.01;100859.59;5029074;28;20044;-80
2023/07/30 00:45:01;;;;;;;12.32;4.13;;;;;;;14.54;98.50;100859.31;5028992;28;20280;-82
2023/07/30 00:47:26;;;;;;;9.35;3.60;;;;;;;14.49;97.90;100870.31;5030093;28;20108;-80
2023/07/30 00:49:52;;;;;;;10.57;3.70;;;;;;;14.47;98.13;100866.13;5011639;28;20025;-81
2023/07/30 00:52:20;;;;;;;13.40;4.10;;;;;;;14.44;98.44;100869.06;5023242;28;20052;-81
2023/07/30 00:54:48;;;;;;;11.18;4.25;;;;;;;14.42;98.75;100874.47;5027897;28;20040;-82
2023/07/30 00:57:15;;;;;;;11.20;4.05;;;;;;;14.44;98.52;100871.72;5026869;28;20025;-79
2023/07/30 00:59:44;;;;;;;10.38;4.07;;;;;;;14.39;99.07;100880.84;5029781;28;20049;-81
2023/07/30 01:02:09;;;;;;;9.95;3.80;;;;;;;14.43;98.84;100883.28;5026415;28;20025;-82
2023/07/30 01:04:37;;;;;;;9.00;3.72;;;;;;;14.40;98.97;100885.16;5014713;28;20112;-81
2023/07/30 01:07:03;;;;;;;9.38;4.13;;;;;;;14.43;99.42;100888.56;4990581;28;20069;-82
2023/07/30 01:09:28;;;;;;;10.68;4.10;;;;;;;14.41;98.75;100886.88;4994183;28;20119;-82
2023/07/30 01:11:55;;;;;;;9.10;3.75;;;;;;;14.37;99.50;100890.72;4986188;28;20036;-81
2023/07/30 01:14:22;;;;;;;9.88;3.53;;;;;;;14.36;99.50;100894.34;5009479;28;20429;-81
2023/07/30 01:16:48;;;;;;;10.35;4.03;;;;;;;14.35;99.61;100891.84;5009583;28;20022;-80
2023/07/30 01:19:14;;;;;;;12.32;3.60;;;;;;;14.36;99.71;100899.63;5007952;28;20733;-81
2023/07/30 01:21:39;;;;;;;9.20;3.70;;;;;;;14.34;100.00;100896.28;5008379;28;20135;-80
2023/07/30 01:24:05;;;;;;;9.02;4.07;;;;;;;14.38;100.00;100902.16;4989788;28;20029;-81
2023/07/30 01:26:40;;;;;;;12.35;3.58;;;;;;;14.36;100.00;100906.75;5006610;28;20029;-81
2023/07/30 01:29:13;;;;;;;12.23;4.05;;;;;;;14.36;100.00;100898.81;4994562;28;20393;-80
2023/07/30 01:31:41;;;;;;;13.98;4.40;;;;;;;14.35;100.00;100907.72;5001062;28;20030;-82
2023/07/30 01:34:11;;;;;;;10.77;4.00;;;;;;;14.33;100.00;100905.22;5017940;28;20046;-81
2023/07/30 01:36:38;;;;;;;13.68;4.15;;;;;;;14.32;100.00;100908.00;5009752;28;20389;-81
2023/07/30 01:39:05;;;;;;;11.07;3.75;;;;;;;14.32;100.00;100913.28;5008894;28;20018;-81
2023/07/30 01:41:31;;;;;;;16.90;4.57;;;;;;;14.30;100.00;100909.94;4988697;28;20074;-81
2023/07/30 01:43:56;;;;;;;10.60;4.22;;;;;;;14.27;100.00;100899.63;5008331;28;20114;-81
2023/07/30 01:46:22;;;;;;;9.45;3.63;;;;;;;14.25;100.00;100918.28;4990944;28;20026;-82
2023/07/30 01:48:47;;;;;;;11.95;4.30;;;;;;;14.23;100.00;100917.59;4991608;28;20556;-81
2023/07/30 01:51:12;;;;;;;13.48;4.28;;;;;;;14.23;100.00;100914.94;5008487;28;20493;-81
2023/07/30 01:53:38;;;;;;;9.82;3.97;;;;;;;14.20;100.00;100909.09;5007869;28;20025;-81
2023/07/30 01:56:03;;;;;;;11.27;3.72;;;;;;;14.19;100.00;100915.34;5001917;28;20026;-81
2023/07/30 01:58:29;;;;;;;11.93;4.22;;;;;;;14.18;100.00;100909.22;5002507;28;20022;-81
2023/07/30 02:00:54;;;;;;;12.13;4.10;;;;;;;14.19;100.00;100916.19;5008220;28;20501;-80
2023/07/30 02:03:19;;;;;;;11.93;4.18;;;;;;;14.14;100.00;100921.06;5008521;28;20041;-82
2023/07/30 02:05:45;;;;;;;12.65;4.30;;;;;;;14.14;100.00;100920.22;4992843;28;20025;-82
2023/07/30 02:08:13;;;;;;;10.45;4.43;;;;;;;14.15;100.00;100913.94;5012351;28;20030;-81
2023/07/30 02:10:38;;;;;;;11.45;4.28;;;;;;;14.15;100.00;100917.44;4994723;28;20486;-81
2023/07/30 02:13:03;;;;;;;12.73;4.75;;;;;;;14.13;100.00;100910.59;4995151;28;20030;-81
2023/07/30 02:15:29;;;;;;;10.85;4.10;;;;;;;14.13;100.00;100914.09;4989599;28;20034;-82
2023/07/30 02:17:54;;;;;;;10.50;4.43;;;;;;;14.17;100.00;100910.19;4991831;28;20640;-81
2023/07/30 02:20:20;;;;;;;13.20;4.25;;;;;;;14.17;100.00;100904.91;4975162;28;20034;-81
2023/07/30 02:22:45;;;;;;;11.13;4.20;;;;;;;14.19;100.00;100902.97;4992611;28;20390;-81
2023/07/30 02:25:11;;;;;;;10.98;3.88;;;;;;;14.20;100.00;100899.34;5010951;28;20067;-82
2023/07/30 02:27:36;;;;;;;16.73;4.50;;;;;;;14.20;100.00;100899.34;5011286;28;20033;-81
2023/07/30 02:30:02;;;;;;;13.07;4.40;;;;;;;14.23;100.00;100899.06;4976568;28;20041;-80
2023/07/30 02:32:28;;;;;;;13.52;4.85;;;;;;;14.25;100.00;100907.72;5007026;28;20771;-81
2023/07/30 02:34:54;;;;;;;12.75;4.25;;;;;;;14.25;100.00;100904.22;5011395;28;20030;-80
2023/07/30 02:37:19;;;;;;;11.10;4.57;;;;;;;14.26;100.00;100906.72;5010572;28;20030;-80
2023/07/30 02:39:45;;;;;;;14.25;4.75;;;;;;;14.27;100.00;100902.28;5011969;28;20026;-80
2023/07/30 02:42:10;;;;;;;15.50;4.47;;;;;;;14.31;100.00;100906.31;4992879;28;20037;-80
2023/07/30 02:44:35;;;;;;;14.25;4.43;;;;;;;14.33;100.00;100905.22;5012416;28;20053;-81
2023/07/30 02:47:01;;;;;;;15.02;4.78;;;;;;;14.35;100.00;100907.72;5012003;28;20558;-80
2023/07/30 02:49:26;;;;;;;15.02;4.88;;;;;;;14.34;100.00;100906.03;4987106;28;20065;-81
2023/07/30 02:51:51;;;;;;;14.50;4.70;;;;;;;14.35;100.00;100908.56;4992367;28;20030;-81
2023/07/30 02:54:17;;;;;;;13.73;5.38;;;;;;;14.36;100.00;100904.94;5010511;28;20032;-82
2023/07/30 02:56:43;;;;;;;13.40;4.95;;;;;;;14.34;100.00;100903.41;4997108;28;20049;-80
2023/07/30 02:59:08;;;;;;;11.48;4.88;;;;;;;14.32;100.00;100900.88;4997121;28;20029;-82
2023/07/30 03:01:34;;;;;;;13.30;4.75;;;;;;;14.32;100.00;100903.53;5011656;28;20117;-80
2023/07/30 03:03:59;;;;;;;12.80;4.78;;;;;;;14.35;100.00;100907.72;5010758;28;20461;-81
2023/07/30 03:06:24;;;;;;;13.38;5.10;;;;;;;14.35;100.00;100899.78;5011059;28;20026;-80
2023/07/30 03:08:50;;;;;;;12.77;5.28;;;;;;;14.35;100.00;100902.44;5006466;28;20025;-81
2023/07/30 03:11:15;;;;;;;15.77;5.20;;;;;;;14.36;100.00;100904.94;5010760;28;20076;-80
2023/07/30 03:13:40;;;;;;;14.73;4.80;;;;;;;14.40;100.00;100910.78;5012075;28;20026;-81
2023/07/30 03:16:06;;;;;;;19.50;5.68;;;;;;;14.40;100.00;100911.63;5012140;28;20366;-79
2023/07/30 03:18:31;;;;;;;16.60;5.45;;;;;;;14.41;100.00;100912.50;5009164;28;20032;-80
2023/07/30 03:21:00;;;;;;;14.50;5.05;;;;;;;14.42;100.00;100911.53;4992702;28;20040;-81
2023/07/30 03:23:26;;;;;;;13.18;4.78;;;;;;;14.43;100.00;100909.75;5001250;28;20056;-82
2023/07/30 03:25:52;;;;;;;14.18;4.88;;;;;;;14.44;100.00;100906.97;4998759;28;20481;-81
2023/07/30 03:28:17;;;;;;;17.63;4.82;;;;;;;14.45;100.00;100913.09;4989777;28;20027;-80
2023/07/30 03:30:42;;;;;;;12.32;4.40;;;;;;;14.49;100.00;100903.91;5007346;28;20029;-82
2023/07/30 03:33:08;;;;;;;20.23;4.90;;;;;;;14.46;100.00;100907.66;5009225;28;20034;-82
2023/07/30 03:35:33;;;;;;;16.13;4.85;;;;;;;14.49;100.00;100909.19;5010630;28;20026;-81
2023/07/30 03:37:59;;;;;;;15.75;5.03;;;;;;;14.50;100.00;100911.69;4992750;28;20022;-81
2023/07/30 03:40:24;;;;;;;16.30;4.68;;;;;;;14.51;100.00;100915.19;4997401;28;20030;-80
2023/07/30 03:42:49;;;;;;;15.27;4.55;;;;;;;14.49;100.00;100911.84;4980433;28;20034;-80
2023/07/30 03:45:15;;;;;;;14.35;4.78;;;;;;;14.47;100.00;100916.44;4973803;28;20018;-81
2023/07/30 03:47:40;;;;;;;15.35;4.97;;;;;;;14.46;100.00;100926.19;4973063;28;20065;-80
2023/07/30 03:50:06;;;;;;;16.38;4.80;;;;;;;14.49;100.00;100917.13;4973889;28;20443;-82
2023/07/30 03:52:31;;;;;;;18.23;5.15;;;;;;;14.46;100.00;100914.75;4990343;28;20080;-81
2023/07/30 03:54:57;;;;;;;13.48;4.63;;;;;;;14.48;100.00;100926.06;4986536;28;20060;-81
2023/07/30 03:57:22;;;;;;;18.92;5.18;;;;;;;14.50;100.00;100927.59;4988371;28;20038;-81
2023/07/30 03:59:47;;;;;;;18.67;5.05;;;;;;;14.53;100.00;100931.78;4972785;28;20125;-81
2023/07/30 04:02:15;;;;;;;14.70;5.03;;;;;;;14.53;100.00;100929.13;5005745;28;20033;-80
2023/07/30 04:04:43;;;;;;;18.60;5.10;;;;;;;14.54;100.00;100929.00;5005062;28;20132;-81
2023/07/30 04:07:08;;;;;;;17.08;5.13;;;;;;;14.54;100.00;100923.69;5027131;28;20033;-80
2023/07/30 04:09:34;;;;;;;15.93;5.47;;;;;;;14.53;100.00;100931.78;5012823;28;20025;-80
2023/07/30 04:11:59;;;;;;;17.70;5.07;;;;;;;14.55;100.00;100932.47;5003097;28;20076;-81
2023/07/30 04:14:24;;;;;;;16.15;5.28;;;;;;;14.55;100.00;100927.19;5009964;28;20022;-80
2023/07/30 04:16:50;;;;;;;17.23;5.13;;;;;;;14.56;100.00;100931.50;5025715;28;20094;-80
2023/07/30 04:19:15;;;;;;;16.85;5.68;;;;;;;14.56;100.00;100932.34;5030383;28;20072;-82
2023/07/30 04:21:41;;;;;;;15.68;5.13;;;;;;;14.57;100.00;100930.53;5027014;28;20033;-80
2023/07/30 04:24:06;;;;;;;20.15;5.07;;;;;;;14.57;100.00;100933.16;5010771;28;20036;-81
2023/07/30 04:26:31;;;;;;;15.38;5.47;;;;;;;14.59;100.00;100933.88;5029398;28;20033;-81
2023/07/30 04:28:57;;;;;;;19.88;5.80;;;;;;;14.58;100.00;100934.84;5009530;28;20064;-82
2023/07/30 04:31:22;;;;;;;21.67;6.40;;;;;;;14.61;100.00;100934.56;5030139;28;20382;-80
2023/07/30 04:33:47;;;;;;;20.08;6.78;;;;;;;14.63;100.00;100932.63;5011531;28;20108;-81
2023/07/30 04:36:13;;;;;;;19.65;6.30;;;;;;;14.65;100.00;100935.97;5026764;28;20033;-80
2023/07/30 04:38:38;;;;;;;22.83;6.78;;;;;;;14.68;100.00;100936.53;5028717;28;20036;-80
2023/07/30 04:41:03;;;;;;;21.98;6.30;;;;;;;14.70;100.00;100939.88;5011976;28;20034;-81
2023/07/30 04:43:29;;;;;;;20.10;6.80;;;;;;;14.73;100.00;100936.09;5026949;28;20037;-81
2023/07/30 04:45:54;;;;;;;20.17;6.78;;;;;;;14.77;100.00;100926.06;5012873;28;20033;-80
2023/07/30 04:48:19;;;;;;;18.45;6.72;;;;;;;14.79;100.00;100927.59;5012202;28;20036;-81
2023/07/30 04:50:45;;;;;;;18.10;6.20;;;;;;;14.82;100.00;100929.16;5011346;28;20060;-82
2023/07/30 04:53:10;;;;;;;18.67;6.60;;;;;;;14.86;100.00;100930.56;5028747;28;20025;-81
2023/07/30 04:55:35;;;;;;;17.52;6.28;;;;;;;14.85;100.00;100928.88;5025020;28;20533;-81
2023/07/30 04:58:02;;;;;;;22.67;6.82;;;;;;;14.88;100.00;100934.75;5011705;28;20026;-81
2023/07/30 05:00:27;;;;;;;24.13;7.32;;;;;;;14.91;100.00;100938.94;5027091;28;20033;-80
2023/07/30 05:02:52;;;;;;;19.67;7.13;;;;;;;14.90;100.00;100940.72;5022402;28;20045;-80
2023/07/30 05:05:18;;;;;;;18.15;6.28;;;;;;;14.95;100.00;100946.44;5020895;28;20099;-81
2023/07/30 05:07:43;;;;;;;18.73;6.90;;;;;;;15.01;100.00;100947.69;5027991;28;20559;-81
2023/07/30 05:10:10;;;;;;;17.15;6.32;;;;;;;15.02;100.00;100952.03;5010336;28;20025;-81
2023/07/30 05:12:36;;;;;;;24.17;6.78;;;;;;;15.02;100.00;100960.81;5011361;28;20030;-81
2023/07/30 05:15:02;;;;;;;17.60;6.93;;;;;;;15.00;100.00;100962.75;5028742;28;20465;-81
2023/07/30 05:17:27;;;;;;;19.70;6.55;;;;;;;15.04;100.00;100968.63;5020741;28;20096;-81
2023/07/30 05:19:53;;;;;;;26.77;7.32;;;;;;;15.04;100.00;100963.31;5008054;28;20029;-82
2023/07/30 05:22:19;;;;;;;22.20;6.45;;;;;;;15.05;100.00;100965.84;5011829;28;20098;-81
2023/07/30 05:24:44;;;;;;;20.67;6.30;;;;;;;15.05;100.00;100965.84;5027233;28;20021;-81
2023/07/30 05:27:09;;;;;;;21.52;6.78;;;;;;;15.05;100.00;100971.13;5027776;28;20470;-80
2023/07/30 05:29:35;;;;;;;23.08;7.47;;;;;;;15.07;100.00;100968.34;5010211;28;20029;-80
2023/07/30 05:32:00;;;;;;;20.77;6.55;;;;;;;15.10;100.00;100969.88;5028835;28;20025;-80
2023/07/30 05:34:25;;;;;;;22.05;6.63;;;;;;;15.12;100.00;100959.97;5025035;28;20381;-81
2023/07/30 05:36:51;;;;;;;23.00;6.47;;;;;;;15.16;100.00;100958.72;5027679;28;20021;-81
2023/07/30 05:39:16;;;;;;;23.77;6.80;;;;;;;15.20;100.00;100954.78;5006756;28;20049;-81
2023/07/30 05:41:44;;;;;;;19.90;6.82;;;;;;;15.21;100.00;100956.47;5028911;28;20116;-82
2023/07/30 05:44:10;;;;;;;21.95;5.68;;;;;;;15.26;100.00;100956.91;5026509;28;20018;-82
2023/07/30 05:46:35;;;;;;;24.58;7.00;;;;;;;15.28;100.00;100954.94;5033142;28;20029;-81
2023/07/30 05:49:00;;;;;;;23.13;6.90;;;;;;;15.33;100.00;100955.38;5032514;28;20482;-80
2023/07/30 05:51:26;;;;;;;25.40;7.18;;;;;;;15.35;100.00;100956.91;5018378;28;20414;-83
2023/07/30 05:53:51;;;;;;;22.08;6.70;;;;;;;15.38;100.00;100960.25;5021770;28;20030;-81
2023/07/30 05:56:18;;;;;;;26.42;7.43;;;;;;;15.39;100.00;100960.09;5032043;28;20021;-82
2023/07/30 05:58:44;;;;;;;23.88;7.15;;;;;;;15.42;100.00;100964.28;5013291;28;20037;-80
2023/07/30 06:01:09;;;;;;;24.73;7.05;;;;;;;15.45;100.00;100967.47;5029742;28;20029;-82
2023/07/30 06:03:34;;;;;;;22.33;6.50;;;;;;;15.48;100.00;100969.00;5028455;28;20037;-81
2023/07/30 06:06:01;;;;;;;21.77;7.10;;;;;;;15.56;100.00;100963.81;4991559;28;20064;-83
2023/07/30 06:08:27;;;;;;;26.00;7.55;;;;;;;15.55;100.00;100973.59;5011268;28;20033;-82
2023/07/30 06:10:52;;;;;;;25.30;7.40;;;;;;;15.57;100.00;100971.63;5011419;28;20021;-83
2023/07/30 06:13:18;;;;;;;24.33;6.88;;;;;;;15.63;100.00;100973.78;5011182;28;20562;-83
2023/07/30 06:15:43;;;;;;;21.35;6.72;;;;;;;15.68;100.00;100977.81;5009455;28;20045;-82
2023/07/30 06:18:12;;;;;;;24.52;7.53;;;;;;;15.73;100.00;100980.88;5012602;28;20105;-82
2023/07/30 06:20:40;;;;;;;19.25;6.38;;;;;;;15.79;100.00;100985.59;5012180;28;20022;-82
2023/07/30 06:23:06;;;;;;;25.70;7.28;;;;;;;15.82;100.00;100964.91;5003905;28;20378;-83
2023/07/30 06:25:34;;;;;;;21.92;6.60;;;;;;;15.86;100.00;100971.59;5009357;28;20117;-82
2023/07/30 06:28:00;;;;;;;20.92;6.47;;;;;;;15.89;100.00;100970.47;4993689;28;20076;-83
2023/07/30 06:30:25;;;;;;;24.92;7.38;;;;;;;15.92;100.00;100975.50;5012163;28;20030;-83
2023/07/30 06:32:53;;;;;;;27.52;7.60;;;;;;;15.88;100.00;100969.66;5011775;28;20045;-83
2023/07/30 06:35:18;;;;;;;24.58;6.60;;;;;;;15.95;100.00;100978.69;5009373;28;20450;-79
2023/07/30 06:37:46;;;;;;;23.38;6.90;;;;;;;15.95;100.00;100975.19;4992942;28;20034;-79
2023/07/30 06:40:14;;;;;;;20.20;6.30;;;;;;;15.95;100.00;100970.72;4977567;28;20062;-80
2023/07/30 06:42:42;;;;;;;21.88;6.90;;;;;;;16.02;100.00;100968.34;4988859;28;20116;-80
2023/07/30 06:45:13;;;;;;;22.33;6.63;;;;;;;16.08;100.00;100969.59;4994497;28;20026;-79
2023/07/30 06:47:38;;;;;;;24.52;6.20;;;;;;;16.14;100.00;100969.00;5001489;28;20024;-79
2023/07/30 06:50:08;;;;;;;22.05;6.10;;;;;;;16.17;100.00;100974.84;4994614;28;20114;-80
2023/07/30 06:52:33;;;;;;;21.77;6.43;;;;;;;16.25;100.00;100969.63;5010528;28;20077;-80
2023/07/30 06:54:59;;;;;;;23.17;6.10;;;;;;;16.30;100.00;100969.19;4995148;28;20030;-82
2023/07/30 06:57:24;;;;;;;20.77;5.65;;;;;;;16.34;100.00;100972.38;4991806;28;20029;-83
2023/07/30 06:59:53;;;;;;;21.70;6.25;;;;;;;16.43;100.00;100977.66;5011950;28;20109;-82
2023/07/30 07:02:21;;;;;;;22.38;6.30;;;;;;;16.54;100.00;100976.63;4991240;28;20021;-82
2023/07/30 07:04:46;;;;;;;22.83;6.13;;;;;;;16.55;100.00;100980.94;5005851;28;20511;-82
2023/07/30 07:07:12;;;;;;;27.05;6.25;;;;;;;16.58;100.00;100986.81;4993481;28;20021;-81
2023/07/30 07:09:40;;;;;;;26.80;5.75;;;;;;;16.54;100.00;100988.09;5010759;28;20145;-82
2023/07/30 07:12:06;;;;;;;22.95;6.13;;;;;;;16.55;100.00;100994.25;5010088;28;20030;-82
2023/07/30 07:14:32;;;;;;;22.70;5.93;;;;;;;16.54;100.00;100993.41;5010950;28;20033;-83
2023/07/30 07:16:57;;;;;;;22.33;5.28;;;;;;;16.63;100.00;100986.34;4996863;28;20402;-82
2023/07/30 07:19:23;;;;;;;20.77;5.63;;;;;;;16.82;100.00;100986.28;5010916;28;20144;-81
2023/07/30 07:21:48;;;;;;;21.15;4.82;;;;;;;17.03;99.07;100982.47;4993168;28;20092;-82
2023/07/30 07:24:14;;;;;;;21.88;5.15;;;;;;;17.34;98.56;100981.09;4976469;28;20065;-82
2023/07/30 07:26:39;;;;;;;20.58;5.32;;;;;;;17.57;97.21;100980.59;4993392;28;20091;-82
2023/07/30 07:29:04;;;;;;;18.65;4.55;;;;;;;17.76;95.37;100975.94;5006438;28;20028;-82
2023/07/30 07:31:30;;;;;;;20.55;5.05;;;;;;;17.98;93.50;100977.22;5016112;28;20022;-85
2023/07/30 07:33:55;;;;;;;18.58;4.47;;;;;;;18.10;92.59;100981.31;4986741;28;20490;-82
2023/07/30 07:36:20;;;;;;;20.65;4.38;;;;;;;18.03;90.68;100982.09;5009737;28;20137;-84
2023/07/30 07:38:46;;;;;;;20.80;4.68;;;;;;;17.98;92.58;100992.38;4989005;28;20030;-83
2023/07/30 07:41:16;;;;;;;14.63;4.50;;;;;;;17.84;93.01;101002.59;5010189;28;20038;-83
2023/07/30 07:43:47;;;;;;;20.52;4.88;;;;;;;17.66;92.09;101006.28;5008136;28;20034;-82
2023/07/30 07:46:15;;;;;;;19.95;5.10;;;;;;;17.53;91.70;101002.19;4991855;28;20028;-81
2023/07/30 07:48:43;;;;;;;20.40;4.50;;;;;;;17.40;93.05;100996.44;5003925;28;20030;-82
2023/07/30 07:51:12;;;;;;;19.75;4.50;;;;;;;17.38;93.04;100997.59;5010188;28;20084;-82
2023/07/30 07:53:38;;;;;;;17.65;4.13;;;;;;;17.41;92.91;100998.09;4993195;28;20084;-81
2023/07/30 07:56:03;;;;;;;17.67;4.40;;;;;;;17.58;93.29;100992.91;4993624;28;20021;-81
2023/07/30 07:58:29;;;;;;;19.02;4.80;;;;;;;17.68;91.70;101001.69;5022145;28;20040;-83
2023/07/30 08:00:55;;;;;;;18.30;4.55;;;;;;;17.72;91.68;101001.22;5030209;28;20428;-83
2023/07/30 08:03:21;;;;;;;20.92;4.45;;;;;;;17.92;91.30;101001.81;5012885;28;20025;-83
2023/07/30 08:05:47;;;;;;;21.92;4.70;;;;;;;18.02;90.23;100993.75;4983317;28;20072;-82
2023/07/30 08:08:13;;;;;;;17.45;3.80;;;;;;;18.05;89.94;101006.75;4991450;28;20081;-82
2023/07/30 08:10:39;;;;;;;16.13;4.60;;;;;;;18.08;88.78;101001.94;4991440;28;20450;-84
2023/07/30 08:13:05;;;;;;;17.58;4.20;;;;;;;18.25;88.54;101015.31;4991002;28;20034;-83
2023/07/30 08:15:30;;;;;;;19.45;4.47;;;;;;;18.32;87.87;101014.53;4991202;28;20026;-83
2023/07/30 08:18:01;;;;;;;18.88;4.78;;;;;;;18.35;86.61;101006.22;4986373;28;20113;-83
2023/07/30 08:20:27;;;;;;;20.30;4.57;;;;;;;18.26;86.57;101009.00;5008700;28;20037;-82
2023/07/30 08:22:52;;;;;;;16.25;4.32;;;;;;;18.16;86.92;101012.63;4992648;28;20034;-82
2023/07/30 08:25:17;;;;;;;17.70;4.40;;;;;;;18.12;86.94;101021.09;5009074;28;20580;-82
2023/07/30 08:27:43;;;;;;;18.67;5.30;;;;;;;18.08;87.31;101020.56;5008939;28;20021;-83
2023/07/30 08:30:09;;;;;;;18.20;4.30;;;;;;;18.03;87.99;101014.06;4992252;28;20088;-81
2023/07/30 08:32:34;;;;;;;16.58;4.03;;;;;;;17.99;88.05;101026.81;5010966;28;20112;-83
2023/07/30 08:34:59;;;;;;;17.85;4.68;;;;;;;18.03;87.87;101020.22;4992355;28;20441;-81
2023/07/30 08:37:25;;;;;;;18.13;4.40;;;;;;;17.98;86.05;101011.84;4988194;28;20390;-82
2023/07/30 08:39:50;;;;;;;15.23;4.20;;;;;;;18.00;86.18;101015.19;5008069;28;20108;-81
2023/07/30 08:42:15;;;;;;;17.25;4.63;;;;;;;18.00;86.04;101014.34;5000753;28;20022;-81
2023/07/30 08:44:44;;;;;;;19.08;5.35;;;;;;;18.04;86.41;101015.72;5012804;28;20038;-81
2023/07/30 08:47:10;;;;;;;14.85;4.18;;;;;;;18.00;87.51;101012.50;5005536;28;20017;-82
2023/07/30 08:49:35;;;;;;;15.88;4.07;;;;;;;17.90;87.84;101014.47;4993631;28;20052;-82
2023/07/30 08:52:02;;;;;;;19.67;4.45;;;;;;;17.75;89.78;101013.38;5004918;28;20190;-82
2023/07/30 08:54:30;;;;;;;15.65;4.28;;;;;;;17.64;91.37;101013.59;5020391;28;20128;-81
2023/07/30 08:56:57;;;;;;;15.43;3.95;;;;;;;17.64;92.09;101013.59;5006973;28;20026;-81
2023/07/30 08:59:24;;;;;;;18.33;3.95;;;;;;;17.66;91.62;101006.28;5010286;28;20112;-82
2023/07/30 09:01:51;;;;;;;18.75;4.35;;;;;;;17.80;91.39;101011.91;5020620;28;20492;-82
2023/07/30 09:04:17;;;;;;;16.63;4.60;;;;;;;17.92;92.07;101007.16;5037116;28;20059;-82
2023/07/30 09:06:43;;;;;;;17.80;4.20;;;;;;;17.97;90.05;101010.16;5039151;28;20082;-82
2023/07/30 09:09:13;;;;;;;16.13;3.90;;;;;;;18.10;89.02;101002.59;5034213;28;20017;-81
2023/07/30 09:11:38;;;;;;;18.23;4.53;;;;;;;18.44;88.72;101004.44;5031923;28;20044;-82
2023/07/30 09:14:06;;;;;;;13.38;4.22;;;;;;;18.88;85.49;100996.28;5024439;28;20017;-82
2023/07/30 09:16:31;;;;;;;14.52;3.75;;;;;;;19.55;84.18;100997.00;5035644;28;20043;-83
2023/07/30 09:18:57;;;;;;;14.45;3.97;;;;;;;20.27;79.06;101000.50;5026574;28;20304;-81
2023/07/30 09:21:33;;;;;;;17.95;4.03;;;;;;;20.91;77.13;100998.56;5056150;28;20431;-81
2023/07/30 09:24:05;;;;;;;14.10;3.25;;;;;;;21.09;72.20;100999.09;5033400;28;20461;-80
2023/07/30 09:26:43;;;;;;;12.17;2.93;;;;;;;21.08;71.13;101002.78;5030531;28;20034;-80
2023/07/30 09:29:09;;;;;;;10.85;3.50;;;;;;;20.91;68.28;101002.06;5024934;28;20036;-80
2023/07/30 09:31:55;;;;;;;12.07;3.33;;;;;;;20.80;73.01;100996.28;5038548;28;20028;-82
2023/07/30 09:34:23;;;;;;;10.25;2.70;;;;;;;20.88;70.05;100991.72;5032386;28;20041;-81
2023/07/30 09:36:53;;;;;;;14.88;3.05;;;;;;;20.96;68.88;100985.50;5038445;28;20020;-81
2023/07/30 09:39:26;;;;;;;8.82;2.72;;;;;;;20.94;69.46;101000.88;5031839;28;20030;-81
2023/07/30 09:41:59;;;;;;;9.00;2.65;;;;;;;20.58;71.01;100995.25;5043745;28;20027;-81
2023/07/30 09:44:25;;;;;;;;;;;;;;;20.71;73.63;101000.00;5024450;28;20033;-82
2023/07/30 09:46:50;;;;;;;13.60;2.95;;;;;;;20.27;70.79;101008.53;5021385;28;19913;-80
2023/07/30 09:49:17;;;;;;;14.60;3.03;;;;;;;20.11;70.09;101014.78;5048618;28;20021;-80
2023/07/30 09:51:42;;;;;;;11.60;2.83;;;;;;;20.17;72.12;101018.59;5022465;28;20037;-80
2023/07/30 09:54:11;;;;;;;8.65;2.70;;;;;;;20.27;70.88;101014.72;5034265;28;20393;-80
2023/07/30 09:56:37;;;;;;;10.10;2.47;;;;;;;20.26;68.98;101009.53;5018361;28;20396;-80
2023/07/30 09:59:04;;;;;;;8.48;2.60;;;;;;;20.15;69.85;101020.59;5011929;28;20477;-80
2023/07/30 10:01:30;;;;;;;8.57;2.55;;;;;;;19.96;70.66;101019.13;5014575;28;20043;-80
2023/07/30 10:03:57;;;;;;;12.65;3.13;;;;;;;19.80;71.82;101017.34;5036424;28;20049;-80
2023/07/30 10:06:27;;;;;;;11.20;2.63;;;;;;;19.75;71.76;101025.03;5015770;28;20508;-80
2023/07/30 10:08:56;;;;;;;7.85;2.13;;;;;;;19.70;72.93;101016.69;5031946;28;20025;-80
2023/07/30 10:11:23;;;;;;;11.02;2.67;;;;;;;19.65;71.87;101019.03;5037403;28;20493;-80
2023/07/30 10:13:49;;;;;;;11.20;2.90;;;;;;;19.58;72.22;101026.00;5036465;28;20067;-81
2023/07/30 10:16:15;;;;;;;10.10;2.90;;;;;;;19.49;72.15;101030.50;5026885;28;20033;-80
2023/07/30 10:18:42;;;;;;;12.93;2.92;;;;;;;19.59;71.42;101035.69;5017512;28;20033;-80
2023/07/30 10:21:09;;;;;;;9.57;2.45;;;;;;;19.99;71.00;101032.97;5034514;28;20229;-79
2023/07/30 10:23:35;;;;;;;11.02;2.42;;;;;;;20.21;69.40;101026.09;5049238;28;20025;-79
2023/07/30 10:26:10;;;;;;;9.75;2.50;;;;;;;20.39;70.18;101036.53;5020055;28;20052;-80
2023/07/30 10:28:43;;;;;;;9.75;2.55;;;;;;;20.40;68.03;101040.06;5025716;28;20048;-80
2023/07/30 10:31:13;;;;;;;7.10;2.13;;;;;;;20.36;67.82;101031.53;5031145;28;20107;-80
2023/07/30 10:33:52;;;;;;;8.95;2.20;;;;;;;20.26;68.07;101049.63;5027864;28;20045;-80
2023/07/30 10:36:32;;;;;;;9.43;2.10;;;;;;;20.16;67.53;101054.34;5012567;28;20062;-80
2023/07/30 10:39:10;;;;;;;7.00;1.73;;;;;;;20.01;66.66;101060.38;5043555;28;20014;-79
2023/07/30 10:41:37;;;;;;;7.05;2.03;;;;;;;19.98;66.61;101067.88;5040676;28;20389;-80
2023/07/30 10:44:10;;;;;;;8.10;2.30;;;;;;;20.13;66.55;101060.03;5033910;28;20496;-80
2023/07/30 10:46:38;;;;;;;9.05;2.05;;;;;;;20.34;67.18;101058.44;5052078;28;20056;-80
2023/07/30 10:49:03;;;;;;;6.53;2.08;;;;;;;20.43;65.26;101059.31;5039786;28;20049;-81
2023/07/30 10:51:29;;;;;;;10.10;2.53;;;;;;;20.37;66.74;101057.25;5012865;28;20029;-82
2023/07/30 10:53:57;;;;;;;7.30;2.08;;;;;;;20.31;67.45;101052.59;5029963;28;20025;-80
2023/07/30 10:56:24;;;;;;;9.57;2.35;;;;;;;20.29;67.38;101057.28;5025888;28;20033;-81
2023/07/30 10:58:52;;;;;;;7.85;2.28;;;;;;;20.18;66.65;101055.81;5037385;28;20017;-81
2023/07/30 11:01:17;;;;;;;7.60;2.00;;;;;;;20.05;67.35;101057.38;5030959;28;20067;-81
2023/07/30 11:03:42;;;;;;;7.88;1.98;;;;;;;19.95;70.05;101065.53;5051061;28;20079;-81
2023/07/30 11:06:08;;;;;;;6.63;2.03;;;;;;;19.79;71.64;101068.25;5033496;28;20542;-80
2023/07/30 11:08:34;;;;;;;9.55;1.92;;;;;;;19.58;70.67;101069.56;5033390;28;20493;-81
2023/07/30 11:11:01;;;;;;;10.25;2.10;;;;;;;19.37;73.33;101075.38;5016063;28;20093;-80